sensor_id;sensor_type;location;lat;lon;timestamp;temperature;humidity
68378;DHT22;55322;48.146;11.516;2022-12-07T00:01:35;2.45;94.42
68378;DHT22;55322;48.146;11.516;2022-12-07T00:04:03;2.42;94.56
68378;DHT22;55322;48.146;11.516;2022-12-07T00:06:37;2.41;94.55
68378;DHT22;55322;48.146;11.516;2022-12-07T00:09:04;2.32;94.58
68378;DHT22;55322;48.146;11.516;2022-12-07T00:11:30;2.35;95.01
68378;DHT22;55322;48.146;11.516;2022-12-07T00:14:01;2.37;94.77
68378;DHT22;55322;48.146;11.516;2022-12-07T00:16:29;2.35;94.65
68378;DHT22;55322;48.146;11.516;2022-12-07T00:18:55;2.31;94.26
68378;DHT22;55322;48.146;11.516;2022-12-07T00:21:22;2.29;94.40
68378;DHT22;55322;48.146;11.516;2022-12-07T00:23:49;2.27;94.47
68378;DHT22;55322;48.146;11.516;2022-12-07T00:28:51;2.24;94.58
68378;DHT22;55322;48.146;11.516;2022-12-07T00:31:18;2.20;94.65
68378;DHT22;55322;48.146;11.516;2022-12-07T00:33:43;2.22;94.27
68378;DHT22;55322;48.146;11.516;2022-12-07T00:36:11;2.18;94.49
68378;DHT22;55322;48.146;11.516;2022-12-07T00:38:38;2.20;94.69
68378;DHT22;55322;48.146;11.516;2022-12-07T00:41:11;2.15;94.67
68378;DHT22;55322;48.146;11.516;2022-12-07T00:43:37;2.18;94.69
68378;DHT22;55322;48.146;11.516;2022-12-07T00:46:03;2.18;94.62
68378;DHT22;55322;48.146;11.516;2022-12-07T00:48:28;2.21;94.73
68378;DHT22;55322;48.146;11.516;2022-12-07T00:50:53;2.20;94.66
68378;DHT22;55322;48.146;11.516;2022-12-07T00:53:19;2.21;94.70
68378;DHT22;55322;48.146;11.516;2022-12-07T00:55:45;2.14;94.79
68378;DHT22;55322;48.146;11.516;2022-12-07T00:58:11;2.11;94.75
68378;DHT22;55322;48.146;11.516;2022-12-07T01:00:38;2.13;94.72
68378;DHT22;55322;48.146;11.516;2022-12-07T01:03:04;2.08;94.88
68378;DHT22;55322;48.146;11.516;2022-12-07T01:05:30;2.11;94.91
68378;DHT22;55322;48.146;11.516;2022-12-07T01:07:56;1.98;95.04
68378;DHT22;55322;48.146;11.516;2022-12-07T01:10:22;2.00;95.10
68378;DHT22;55322;48.146;11.516;2022-12-07T01:12:47;2.01;95.22
68378;DHT22;55322;48.146;11.516;2022-12-07T01:15:13;1.95;95.05
68378;DHT22;55322;48.146;11.516;2022-12-07T01:17:38;2.01;95.20
68378;DHT22;55322;48.146;11.516;2022-12-07T01:20:04;1.97;95.35
68378;DHT22;55322;48.146;11.516;2022-12-07T01:22:29;1.98;95.30
68378;DHT22;55322;48.146;11.516;2022-12-07T01:24:55;1.95;95.41
68378;DHT22;55322;48.146;11.516;2022-12-07T01:27:20;2.01;95.29
68378;DHT22;55322;48.146;11.516;2022-12-07T01:29:45;2.00;94.81
68378;DHT22;55322;48.146;11.516;2022-12-07T01:32:11;2.01;95.06
68378;DHT22;55322;48.146;11.516;2022-12-07T01:34:36;2.00;95.08
68378;DHT22;55322;48.146;11.516;2022-12-07T01:37:02;2.03;94.93
68378;DHT22;55322;48.146;11.516;2022-12-07T01:39:27;2.03;95.04
68378;DHT22;55322;48.146;11.516;2022-12-07T01:41:53;2.00;95.32
68378;DHT22;55322;48.146;11.516;2022-12-07T01:46:48;2.00;95.06
68378;DHT22;55322;48.146;11.516;2022-12-07T01:49:37;1.98;95.09
68378;DHT22;55322;48.146;11.516;2022-12-07T01:52:28;2.00;95.13
68378;DHT22;55322;48.146;11.516;2022-12-07T01:55:00;2.04;95.13
68378;DHT22;55322;48.146;11.516;2022-12-07T01:57:26;2.05;95.15
68378;DHT22;55322;48.146;11.516;2022-12-07T01:59:53;2.04;95.08
68378;DHT22;55322;48.146;11.516;2022-12-07T02:02:34;2.01;94.83
68378;DHT22;55322;48.146;11.516;2022-12-07T02:05:01;1.98;94.86
68378;DHT22;55322;48.146;11.516;2022-12-07T02:07:27;1.95;95.02
68378;DHT22;55322;48.146;11.516;2022-12-07T02:09:54;1.97;95.05
68378;DHT22;55322;48.146;11.516;2022-12-07T02:12:20;1.97;95.05
68378;DHT22;55322;48.146;11.516;2022-12-07T02:14:45;1.97;95.24
68378;DHT22;55322;48.146;11.516;2022-12-07T02:17:13;1.94;95.06
68378;DHT22;55322;48.146;11.516;2022-12-07T02:22:41;1.95;95.36
68378;DHT22;55322;48.146;11.516;2022-12-07T02:28:31;1.91;95.57
68378;DHT22;55322;48.146;11.516;2022-12-07T02:31:14;1.85;95.42
68378;DHT22;55322;48.146;11.516;2022-12-07T02:33:44;1.90;95.60
68378;DHT22;55322;48.146;11.516;2022-12-07T02:36:16;1.97;95.66
68378;DHT22;55322;48.146;11.516;2022-12-07T02:38:56;1.94;95.49
68378;DHT22;55322;48.146;11.516;2022-12-07T02:41:39;1.95;95.32
68378;DHT22;55322;48.146;11.516;2022-12-07T02:44:09;1.91;95.47
68378;DHT22;55322;48.146;11.516;2022-12-07T02:46:42;1.91;95.51
68378;DHT22;55322;48.146;11.516;2022-12-07T02:49:07;1.87;95.39
68378;DHT22;55322;48.146;11.516;2022-12-07T02:51:34;1.85;95.61
68378;DHT22;55322;48.146;11.516;2022-12-07T02:54:10;1.81;95.46
68378;DHT22;55322;48.146;11.516;2022-12-07T03:08:35;1.83;96.31
68378;DHT22;55322;48.146;11.516;2022-12-07T03:11:06;1.85;95.92
68378;DHT22;55322;48.146;11.516;2022-12-07T03:13:48;1.87;95.90
68378;DHT22;55322;48.146;11.516;2022-12-07T03:16:59;1.85;95.84
68378;DHT22;55322;48.146;11.516;2022-12-07T03:19:18;1.85;95.96
68378;DHT22;55322;48.146;11.516;2022-12-07T03:21:49;1.81;96.40
68378;DHT22;55322;48.146;11.516;2022-12-07T03:24:21;1.80;96.58
68378;DHT22;55322;48.146;11.516;2022-12-07T03:27:06;1.83;96.39
68378;DHT22;55322;48.146;11.516;2022-12-07T03:29:47;1.84;96.44
68378;DHT22;55322;48.146;11.516;2022-12-07T03:32:25;1.85;96.61
68378;DHT22;55322;48.146;11.516;2022-12-07T03:35:00;1.83;96.56
68378;DHT22;55322;48.146;11.516;2022-12-07T03:37:33;1.87;96.53
68378;DHT22;55322;48.146;11.516;2022-12-07T03:42:47;1.84;96.50
68378;DHT22;55322;48.146;11.516;2022-12-07T03:45:14;1.88;96.46
68378;DHT22;55322;48.146;11.516;2022-12-07T03:53:14;1.91;96.51
68378;DHT22;55322;48.146;11.516;2022-12-07T03:55:42;1.91;96.14
68378;DHT22;55322;48.146;11.516;2022-12-07T03:58:12;1.88;96.07
68378;DHT22;55322;48.146;11.516;2022-12-07T04:00:40;1.91;96.18
68378;DHT22;55322;48.146;11.516;2022-12-07T04:03:06;1.94;96.33
68378;DHT22;55322;48.146;11.516;2022-12-07T04:05:31;1.94;96.19
68378;DHT22;55322;48.146;11.516;2022-12-07T04:07:57;1.94;96.29
68378;DHT22;55322;48.146;11.516;2022-12-07T04:10:22;1.93;96.26
68378;DHT22;55322;48.146;11.516;2022-12-07T04:12:47;1.97;96.42
68378;DHT22;55322;48.146;11.516;2022-12-07T04:15:13;1.98;96.30
68378;DHT22;55322;48.146;11.516;2022-12-07T04:17:38;1.97;96.24
68378;DHT22;55322;48.146;11.516;2022-12-07T04:20:05;2.01;96.38
68378;DHT22;55322;48.146;11.516;2022-12-07T04:22:30;2.00;96.31
68378;DHT22;55322;48.146;11.516;2022-12-07T04:24:56;1.97;96.18
68378;DHT22;55322;48.146;11.516;2022-12-07T04:27:21;1.94;96.64
68378;DHT22;55322;48.146;11.516;2022-12-07T04:29:46;1.97;96.70
68378;DHT22;55322;48.146;11.516;2022-12-07T04:32:11;2.03;96.91
68378;DHT22;55322;48.146;11.516;2022-12-07T04:34:37;1.97;97.04
68378;DHT22;55322;48.146;11.516;2022-12-07T04:37:02;1.95;97.04
68378;DHT22;55322;48.146;11.516;2022-12-07T04:39:29;1.95;96.88
68378;DHT22;55322;48.146;11.516;2022-12-07T04:41:55;1.95;97.14
68378;DHT22;55322;48.146;11.516;2022-12-07T04:44:21;1.94;97.43
68378;DHT22;55322;48.146;11.516;2022-12-07T04:46:48;1.93;97.59
68378;DHT22;55322;48.146;11.516;2022-12-07T04:49:14;1.94;97.85
68378;DHT22;55322;48.146;11.516;2022-12-07T04:51:40;1.91;97.74
68378;DHT22;55322;48.146;11.516;2022-12-07T04:54:05;1.95;97.59
68378;DHT22;55322;48.146;11.516;2022-12-07T04:56:31;1.97;97.97
68378;DHT22;55322;48.146;11.516;2022-12-07T04:58:57;1.97;98.01
68378;DHT22;55322;48.146;11.516;2022-12-07T05:01:23;1.93;97.94
68378;DHT22;55322;48.146;11.516;2022-12-07T05:03:49;1.94;98.03
68378;DHT22;55322;48.146;11.516;2022-12-07T05:06:14;1.97;98.01
68378;DHT22;55322;48.146;11.516;2022-12-07T05:08:40;2.01;97.98
68378;DHT22;55322;48.146;11.516;2022-12-07T05:11:06;1.90;97.94
68378;DHT22;55322;48.146;11.516;2022-12-07T05:13:32;1.87;98.09
68378;DHT22;55322;48.146;11.516;2022-12-07T05:15:58;1.88;97.98
68378;DHT22;55322;48.146;11.516;2022-12-07T05:18:24;1.91;97.95
68378;DHT22;55322;48.146;11.516;2022-12-07T05:20:50;1.90;98.00
68378;DHT22;55322;48.146;11.516;2022-12-07T05:23:16;1.91;97.96
68378;DHT22;55322;48.146;11.516;2022-12-07T05:25:41;1.88;97.97
68378;DHT22;55322;48.146;11.516;2022-12-07T05:28:07;1.91;97.78
68378;DHT22;55322;48.146;11.516;2022-12-07T05:30:32;1.84;97.71
68378;DHT22;55322;48.146;11.516;2022-12-07T05:32:58;1.88;97.51
68378;DHT22;55322;48.146;11.516;2022-12-07T05:35:23;1.83;97.44
68378;DHT22;55322;48.146;11.516;2022-12-07T05:37:48;1.75;97.72
68378;DHT22;55322;48.146;11.516;2022-12-07T05:40:14;1.78;97.74
68378;DHT22;55322;48.146;11.516;2022-12-07T05:42:40;1.71;98.06
68378;DHT22;55322;48.146;11.516;2022-12-07T05:45:06;1.66;97.87
68378;DHT22;55322;48.146;11.516;2022-12-07T05:47:31;1.67;98.06
68378;DHT22;55322;48.146;11.516;2022-12-07T05:49:57;1.67;98.13
68378;DHT22;55322;48.146;11.516;2022-12-07T05:52:22;1.70;98.24
68378;DHT22;55322;48.146;11.516;2022-12-07T05:54:47;1.71;98.16
68378;DHT22;55322;48.146;11.516;2022-12-07T05:57:13;1.66;97.95
68378;DHT22;55322;48.146;11.516;2022-12-07T05:59:38;1.67;98.02
68378;DHT22;55322;48.146;11.516;2022-12-07T06:02:06;1.63;97.71
68378;DHT22;55322;48.146;11.516;2022-12-07T06:04:34;1.67;98.05
68378;DHT22;55322;48.146;11.516;2022-12-07T06:07:00;1.66;97.90
68378;DHT22;55322;48.146;11.516;2022-12-07T06:09:26;1.67;98.08
68378;DHT22;55322;48.146;11.516;2022-12-07T06:11:53;1.73;98.15
68378;DHT22;55322;48.146;11.516;2022-12-07T06:14:37;1.74;97.79
68378;DHT22;55322;48.146;11.516;2022-12-07T06:17:03;1.68;97.82
68378;DHT22;55322;48.146;11.516;2022-12-07T06:19:28;1.71;97.76
68378;DHT22;55322;48.146;11.516;2022-12-07T06:21:54;1.67;97.65
68378;DHT22;55322;48.146;11.516;2022-12-07T06:24:20;1.71;97.86
68378;DHT22;55322;48.146;11.516;2022-12-07T06:26:45;1.73;97.57
68378;DHT22;55322;48.146;11.516;2022-12-07T06:29:11;1.73;97.75
68378;DHT22;55322;48.146;11.516;2022-12-07T06:31:37;1.75;97.65
68378;DHT22;55322;48.146;11.516;2022-12-07T06:34:06;1.78;97.63
68378;DHT22;55322;48.146;11.516;2022-12-07T06:36:32;1.78;97.48
68378;DHT22;55322;48.146;11.516;2022-12-07T06:38:57;1.78;97.48
68378;DHT22;55322;48.146;11.516;2022-12-07T06:41:23;1.77;97.47
68378;DHT22;55322;48.146;11.516;2022-12-07T06:43:48;1.77;97.51
68378;DHT22;55322;48.146;11.516;2022-12-07T06:46:15;1.78;97.53
68378;DHT22;55322;48.146;11.516;2022-12-07T06:48:41;1.78;97.15
68378;DHT22;55322;48.146;11.516;2022-12-07T06:51:06;1.81;97.25
68378;DHT22;55322;48.146;11.516;2022-12-07T06:53:32;1.87;97.28
68378;DHT22;55322;48.146;11.516;2022-12-07T06:55:57;1.80;97.20
68378;DHT22;55322;48.146;11.516;2022-12-07T06:58:22;1.84;97.18
68378;DHT22;55322;48.146;11.516;2022-12-07T07:00:49;1.83;96.92
68378;DHT22;55322;48.146;11.516;2022-12-07T07:03:17;1.81;96.87
68378;DHT22;55322;48.146;11.516;2022-12-07T07:05:43;1.84;97.04
68378;DHT22;55322;48.146;11.516;2022-12-07T07:08:09;1.85;96.95
68378;DHT22;55322;48.146;11.516;2022-12-07T07:10:34;1.84;96.90
68378;DHT22;55322;48.146;11.516;2022-12-07T07:13:00;1.83;96.76
68378;DHT22;55322;48.146;11.516;2022-12-07T07:15:26;1.84;96.84
68378;DHT22;55322;48.146;11.516;2022-12-07T07:17:51;1.84;96.73
68378;DHT22;55322;48.146;11.516;2022-12-07T07:20:16;1.90;96.50
68378;DHT22;55322;48.146;11.516;2022-12-07T07:22:42;1.91;96.48
68378;DHT22;55322;48.146;11.516;2022-12-07T07:25:07;1.94;96.22
68378;DHT22;55322;48.146;11.516;2022-12-07T07:27:32;1.94;95.91
68378;DHT22;55322;48.146;11.516;2022-12-07T07:29:58;1.97;96.03
68378;DHT22;55322;48.146;11.516;2022-12-07T07:32:23;2.00;95.75
68378;DHT22;55322;48.146;11.516;2022-12-07T07:34:48;1.98;95.79
68378;DHT22;55322;48.146;11.516;2022-12-07T07:37:14;1.98;95.63
68378;DHT22;55322;48.146;11.516;2022-12-07T07:39:39;1.95;95.78
68378;DHT22;55322;48.146;11.516;2022-12-07T07:42:05;2.01;95.59
68378;DHT22;55322;48.146;11.516;2022-12-07T07:44:30;2.04;95.48
68378;DHT22;55322;48.146;11.516;2022-12-07T07:46:56;2.05;94.85
68378;DHT22;55322;48.146;11.516;2022-12-07T07:49:21;2.07;94.99
68378;DHT22;55322;48.146;11.516;2022-12-07T07:51:46;2.14;94.73
68378;DHT22;55322;48.146;11.516;2022-12-07T07:54:12;2.13;94.38
68378;DHT22;55322;48.146;11.516;2022-12-07T07:56:37;2.11;93.74
68378;DHT22;55322;48.146;11.516;2022-12-07T07:59:02;2.18;93.50
68378;DHT22;55322;48.146;11.516;2022-12-07T08:01:28;2.21;93.68
68378;DHT22;55322;48.146;11.516;2022-12-07T08:03:53;2.21;94.01
68378;DHT22;55322;48.146;11.516;2022-12-07T08:06:18;2.20;93.86
68378;DHT22;55322;48.146;11.516;2022-12-07T08:08:44;2.21;93.39
68378;DHT22;55322;48.146;11.516;2022-12-07T08:11:09;2.22;94.15
68378;DHT22;55322;48.146;11.516;2022-12-07T08:13:35;2.25;93.80
68378;DHT22;55322;48.146;11.516;2022-12-07T08:16:08;2.25;93.39
68378;DHT22;55322;48.146;11.516;2022-12-07T08:18:36;2.21;92.82
68378;DHT22;55322;48.146;11.516;2022-12-07T08:21:02;2.29;93.34
68378;DHT22;55322;48.146;11.516;2022-12-07T08:23:28;2.31;93.50
68378;DHT22;55322;48.146;11.516;2022-12-07T08:25:53;2.32;92.63
68378;DHT22;55322;48.146;11.516;2022-12-07T08:28:18;2.31;93.63
68378;DHT22;55322;48.146;11.516;2022-12-07T08:30:44;2.39;93.23
68378;DHT22;55322;48.146;11.516;2022-12-07T08:33:09;2.39;93.16
68378;DHT22;55322;48.146;11.516;2022-12-07T08:35:35;2.44;93.47
68378;DHT22;55322;48.146;11.516;2022-12-07T08:38:01;2.48;93.34
68378;DHT22;55322;48.146;11.516;2022-12-07T08:40:27;2.49;93.26
68378;DHT22;55322;48.146;11.516;2022-12-07T08:42:53;2.50;93.26
68378;DHT22;55322;48.146;11.516;2022-12-07T08:45:20;2.59;93.14
68378;DHT22;55322;48.146;11.516;2022-12-07T08:47:52;2.68;92.58
68378;DHT22;55322;48.146;11.516;2022-12-07T08:50:19;2.69;92.32
68378;DHT22;55322;48.146;11.516;2022-12-07T08:52:53;2.76;92.68
68378;DHT22;55322;48.146;11.516;2022-12-07T08:55:20;2.79;92.32
68378;DHT22;55322;48.146;11.516;2022-12-07T08:57:45;2.83;92.11
68378;DHT22;55322;48.146;11.516;2022-12-07T09:00:11;2.83;90.58
68378;DHT22;55322;48.146;11.516;2022-12-07T09:02:37;2.86;89.41
68378;DHT22;55322;48.146;11.516;2022-12-07T09:05:02;2.83;89.23
68378;DHT22;55322;48.146;11.516;2022-12-07T09:07:30;2.90;88.35
68378;DHT22;55322;48.146;11.516;2022-12-07T09:09:57;2.85;88.08
68378;DHT22;55322;48.146;11.516;2022-12-07T09:12:22;2.85;88.75
68378;DHT22;55322;48.146;11.516;2022-12-07T09:14:47;2.85;89.03
68378;DHT22;55322;48.146;11.516;2022-12-07T09:17:13;2.89;89.04
68378;DHT22;55322;48.146;11.516;2022-12-07T09:19:39;2.97;88.78
68378;DHT22;55322;48.146;11.516;2022-12-07T09:22:05;3.04;89.63
68378;DHT22;55322;48.146;11.516;2022-12-07T09:24:31;3.07;89.49
68378;DHT22;55322;48.146;11.516;2022-12-07T09:26:57;3.12;88.36
68378;DHT22;55322;48.146;11.516;2022-12-07T09:29:23;3.17;88.46
68378;DHT22;55322;48.146;11.516;2022-12-07T09:31:48;3.28;88.13
68378;DHT22;55322;48.146;11.516;2022-12-07T09:34:13;3.40;87.02
68378;DHT22;55322;48.146;11.516;2022-12-07T09:36:39;3.47;87.34
68378;DHT22;55322;48.146;11.516;2022-12-07T09:39:04;3.73;85.94
68378;DHT22;55322;48.146;11.516;2022-12-07T09:41:31;3.67;86.81
68378;DHT22;55322;48.146;11.516;2022-12-07T09:44:04;3.75;86.20
68378;DHT22;55322;48.146;11.516;2022-12-07T09:46:35;3.92;86.31
68378;DHT22;55322;48.146;11.516;2022-12-07T09:49:01;3.99;84.89
68378;DHT22;55322;48.146;11.516;2022-12-07T09:51:26;3.99;85.63
68378;DHT22;55322;48.146;11.516;2022-12-07T09:53:54;4.01;84.77
68378;DHT22;55322;48.146;11.516;2022-12-07T09:56:22;4.15;85.11
68378;DHT22;55322;48.146;11.516;2022-12-07T09:58:48;4.13;85.04
68378;DHT22;55322;48.146;11.516;2022-12-07T10:01:17;4.15;83.90
68378;DHT22;55322;48.146;11.516;2022-12-07T10:03:52;4.05;84.20
68378;DHT22;55322;48.146;11.516;2022-12-07T10:06:18;4.16;84.75
68378;DHT22;55322;48.146;11.516;2022-12-07T10:08:43;4.26;84.08
68378;DHT22;55322;48.146;11.516;2022-12-07T10:11:09;4.28;84.18
68378;DHT22;55322;48.146;11.516;2022-12-07T10:13:38;4.38;83.04
68378;DHT22;55322;48.146;11.516;2022-12-07T10:16:03;4.43;83.70
68378;DHT22;55322;48.146;11.516;2022-12-07T10:18:39;4.35;83.00
68378;DHT22;55322;48.146;11.516;2022-12-07T10:21:15;4.50;84.10
68378;DHT22;55322;48.146;11.516;2022-12-07T10:29:19;4.77;82.78
68378;DHT22;55322;48.146;11.516;2022-12-07T10:31:47;4.93;81.53
68378;DHT22;55322;48.146;11.516;2022-12-07T10:34:50;4.85;80.90
68378;DHT22;55322;48.146;11.516;2022-12-07T10:37:19;5.35;79.88
68378;DHT22;55322;48.146;11.516;2022-12-07T10:39:48;5.42;78.45
68378;DHT22;55322;48.146;11.516;2022-12-07T10:42:24;5.38;78.73
68378;DHT22;55322;48.146;11.516;2022-12-07T10:45:14;5.23;78.07
68378;DHT22;55322;48.146;11.516;2022-12-07T10:50:55;5.75;73.57
68378;DHT22;55322;48.146;11.516;2022-12-07T10:56:08;5.90;75.59
68378;DHT22;55322;48.146;11.516;2022-12-07T11:01:36;6.26;73.64
68378;DHT22;55322;48.146;11.516;2022-12-07T11:12:47;8.30;65.36
68378;DHT22;55322;48.146;11.516;2022-12-07T11:21:13;8.90;64.02
68378;DHT22;55322;48.146;11.516;2022-12-07T11:26:38;9.05;62.36
68378;DHT22;55322;48.146;11.516;2022-12-07T11:34:39;8.44;64.72
68378;DHT22;55322;48.146;11.516;2022-12-07T11:37:10;8.13;63.58
68378;DHT22;55322;48.146;11.516;2022-12-07T11:39:47;7.55;64.04
68378;DHT22;55322;48.146;11.516;2022-12-07T11:42:18;7.30;64.11
68378;DHT22;55322;48.146;11.516;2022-12-07T11:44:57;7.33;67.54
68378;DHT22;55322;48.146;11.516;2022-12-07T11:47:38;7.04;69.75
68378;DHT22;55322;48.146;11.516;2022-12-07T11:53:11;6.67;69.79
68378;DHT22;55322;48.146;11.516;2022-12-07T11:56:09;6.70;65.51
68378;DHT22;55322;48.146;11.516;2022-12-07T12:01:26;6.34;68.88
68378;DHT22;55322;48.146;11.516;2022-12-07T12:03:58;6.36;69.55
68378;DHT22;55322;48.146;11.516;2022-12-07T12:06:26;6.33;67.56
68378;DHT22;55322;48.146;11.516;2022-12-07T12:12:01;5.73;68.00
68378;DHT22;55322;48.146;11.516;2022-12-07T12:14:48;5.59;67.75
68378;DHT22;55322;48.146;11.516;2022-12-07T12:22:37;5.55;70.44
68378;DHT22;55322;48.146;11.516;2022-12-07T12:25:06;5.27;70.02
68378;DHT22;55322;48.146;11.516;2022-12-07T12:27:35;5.04;70.99
68378;DHT22;55322;48.146;11.516;2022-12-07T12:30:05;4.90;72.07
68378;DHT22;55322;48.146;11.516;2022-12-07T12:32:41;4.57;70.83
68378;DHT22;55322;48.146;11.516;2022-12-07T12:37:54;4.56;72.38
68378;DHT22;55322;48.146;11.516;2022-12-07T12:42:47;4.26;73.65
68378;DHT22;55322;48.146;11.516;2022-12-07T12:45:29;4.10;74.90
68378;DHT22;55322;48.146;11.516;2022-12-07T12:48:07;3.95;74.06
68378;DHT22;55322;48.146;11.516;2022-12-07T12:51:54;3.98;75.37
68378;DHT22;55322;48.146;11.516;2022-12-07T12:54:11;4.05;75.70
68378;DHT22;55322;48.146;11.516;2022-12-07T13:00:26;3.92;74.66
68378;DHT22;55322;48.146;11.516;2022-12-07T13:02:35;4.02;76.34
68378;DHT22;55322;48.146;11.516;2022-12-07T13:15:51;4.06;77.11
68378;DHT22;55322;48.146;11.516;2022-12-07T13:21:01;4.16;75.16
68378;DHT22;55322;48.146;11.516;2022-12-07T13:26:35;4.09;76.10
68378;DHT22;55322;48.146;11.516;2022-12-07T13:29:19;4.12;76.49
68378;DHT22;55322;48.146;11.516;2022-12-07T13:31:54;4.15;75.82
68378;DHT22;55322;48.146;11.516;2022-12-07T13:36:54;3.98;76.55
68378;DHT22;55322;48.146;11.516;2022-12-07T13:39:23;4.03;76.38
68378;DHT22;55322;48.146;11.516;2022-12-07T13:41:50;4.03;76.91
68378;DHT22;55322;48.146;11.516;2022-12-07T13:44:17;3.97;77.20
68378;DHT22;55322;48.146;11.516;2022-12-07T13:47:01;3.87;77.05
68378;DHT22;55322;48.146;11.516;2022-12-07T13:49:31;3.78;77.61
68378;DHT22;55322;48.146;11.516;2022-12-07T13:52:17;3.73;78.18
68378;DHT22;55322;48.146;11.516;2022-12-07T13:54:49;3.58;78.35
68378;DHT22;55322;48.146;11.516;2022-12-07T13:57:20;3.45;78.52
68378;DHT22;55322;48.146;11.516;2022-12-07T13:59:46;3.37;79.24
68378;DHT22;55322;48.146;11.516;2022-12-07T14:02:22;3.35;80.42
68378;DHT22;55322;48.146;11.516;2022-12-07T14:04:50;3.34;80.54
68378;DHT22;55322;48.146;11.516;2022-12-07T14:09:56;3.33;79.53
68378;DHT22;55322;48.146;11.516;2022-12-07T14:12:23;3.40;77.04
68378;DHT22;55322;48.146;11.516;2022-12-07T14:14:49;3.45;76.76
68378;DHT22;55322;48.146;11.516;2022-12-07T14:17:17;3.51;77.08
68378;DHT22;55322;48.146;11.516;2022-12-07T14:22:38;3.35;78.81
68378;DHT22;55322;48.146;11.516;2022-12-07T14:27:39;3.37;76.78
68378;DHT22;55322;48.146;11.516;2022-12-07T14:30:05;3.31;77.12
68378;DHT22;55322;48.146;11.516;2022-12-07T14:32:32;3.27;75.67
68378;DHT22;55322;48.146;11.516;2022-12-07T14:35:03;3.27;75.36
68378;DHT22;55322;48.146;11.516;2022-12-07T14:37:29;3.28;74.04
68378;DHT22;55322;48.146;11.516;2022-12-07T14:39:55;3.26;75.71
68378;DHT22;55322;48.146;11.516;2022-12-07T14:42:24;3.26;75.96
68378;DHT22;55322;48.146;11.516;2022-12-07T14:44:51;3.24;75.90
68378;DHT22;55322;48.146;11.516;2022-12-07T14:47:16;3.13;76.21
68378;DHT22;55322;48.146;11.516;2022-12-07T14:49:42;3.03;76.54
68378;DHT22;55322;48.146;11.516;2022-12-07T14:52:15;3.00;77.38
68378;DHT22;55322;48.146;11.516;2022-12-07T14:54:41;2.86;77.43
68378;DHT22;55322;48.146;11.516;2022-12-07T14:57:08;2.79;77.03
68378;DHT22;55322;48.146;11.516;2022-12-07T14:59:34;2.62;78.06
68378;DHT22;55322;48.146;11.516;2022-12-07T15:01:59;2.52;78.80
68378;DHT22;55322;48.146;11.516;2022-12-07T15:04:25;2.46;78.93
68378;DHT22;55322;48.146;11.516;2022-12-07T15:06:58;2.39;78.35
68378;DHT22;55322;48.146;11.516;2022-12-07T15:09:24;2.35;78.45
68378;DHT22;55322;48.146;11.516;2022-12-07T15:11:49;2.29;79.85
68378;DHT22;55322;48.146;11.516;2022-12-07T15:14:14;2.28;79.68
68378;DHT22;55322;48.146;11.516;2022-12-07T15:16:41;2.21;79.45
68378;DHT22;55322;48.146;11.516;2022-12-07T15:19:15;2.21;80.82
68378;DHT22;55322;48.146;11.516;2022-12-07T15:21:42;2.18;80.81
68378;DHT22;55322;48.146;11.516;2022-12-07T15:24:09;2.20;82.52
68378;DHT22;55322;48.146;11.516;2022-12-07T15:26:35;2.21;82.13
68378;DHT22;55322;48.146;11.516;2022-12-07T15:29:00;2.22;83.32
68378;DHT22;55322;48.146;11.516;2022-12-07T15:31:26;2.18;83.84
68378;DHT22;55322;48.146;11.516;2022-12-07T15:33:51;2.18;84.05
68378;DHT22;55322;48.146;11.516;2022-12-07T15:36:21;2.18;82.86
68378;DHT22;55322;48.146;11.516;2022-12-07T15:38:48;2.17;82.69
68378;DHT22;55322;48.146;11.516;2022-12-07T15:41:13;2.13;82.40
68378;DHT22;55322;48.146;11.516;2022-12-07T15:43:39;2.11;82.63
68378;DHT22;55322;48.146;11.516;2022-12-07T15:46:22;2.04;82.97
68378;DHT22;55322;48.146;11.516;2022-12-07T15:48:48;2.00;83.19
68378;DHT22;55322;48.146;11.516;2022-12-07T15:51:13;1.91;84.89
68378;DHT22;55322;48.146;11.516;2022-12-07T15:53:38;1.94;84.83
68378;DHT22;55322;48.146;11.516;2022-12-07T15:56:07;1.93;84.86
68378;DHT22;55322;48.146;11.516;2022-12-07T15:58:33;1.87;84.83
68378;DHT22;55322;48.146;11.516;2022-12-07T16:00:59;1.77;85.95
68378;DHT22;55322;48.146;11.516;2022-12-07T16:03:24;1.78;85.97
68378;DHT22;55322;48.146;11.516;2022-12-07T16:05:50;1.70;86.63
68378;DHT22;55322;48.146;11.516;2022-12-07T16:08:15;1.63;87.30
68378;DHT22;55322;48.146;11.516;2022-12-07T16:10:41;1.60;86.97
68378;DHT22;55322;48.146;11.516;2022-12-07T16:13:11;1.52;88.16
68378;DHT22;55322;48.146;11.516;2022-12-07T16:15:41;1.49;87.22
68378;DHT22;55322;48.146;11.516;2022-12-07T16:18:07;1.47;87.14
68378;DHT22;55322;48.146;11.516;2022-12-07T16:20:32;1.42;87.34
68378;DHT22;55322;48.146;11.516;2022-12-07T16:22:58;1.47;87.32
68378;DHT22;55322;48.146;11.516;2022-12-07T16:25:23;1.42;86.82
68378;DHT22;55322;48.146;11.516;2022-12-07T16:27:48;1.42;87.36
68378;DHT22;55322;48.146;11.516;2022-12-07T16:30:14;1.47;86.76
68378;DHT22;55322;48.146;11.516;2022-12-07T16:32:41;1.53;86.93
68378;DHT22;55322;48.146;11.516;2022-12-07T16:35:06;1.54;86.78
68378;DHT22;55322;48.146;11.516;2022-12-07T16:37:32;1.49;88.03
68378;DHT22;55322;48.146;11.516;2022-12-07T16:39:57;1.47;87.70
68378;DHT22;55322;48.146;11.516;2022-12-07T16:42:22;1.49;88.07
68378;DHT22;55322;48.146;11.516;2022-12-07T16:44:48;1.47;87.69
68378;DHT22;55322;48.146;11.516;2022-12-07T16:47:13;1.43;87.78
68378;DHT22;55322;48.146;11.516;2022-12-07T16:49:38;1.46;88.56
68378;DHT22;55322;48.146;11.516;2022-12-07T16:52:04;1.43;88.67
68378;DHT22;55322;48.146;11.516;2022-12-07T16:54:29;1.40;89.14
68378;DHT22;55322;48.146;11.516;2022-12-07T16:56:58;1.42;88.52
68378;DHT22;55322;48.146;11.516;2022-12-07T16:59:23;1.40;88.37
68378;DHT22;55322;48.146;11.516;2022-12-07T17:01:48;1.42;88.17
68378;DHT22;55322;48.146;11.516;2022-12-07T17:04:14;1.42;88.22
68378;DHT22;55322;48.146;11.516;2022-12-07T17:06:39;1.38;88.42
68378;DHT22;55322;48.146;11.516;2022-12-07T17:09:04;1.38;88.05
68378;DHT22;55322;48.146;11.516;2022-12-07T17:11:34;1.38;88.47
68378;DHT22;55322;48.146;11.516;2022-12-07T17:13:59;1.40;88.09
68378;DHT22;55322;48.146;11.516;2022-12-07T17:16:43;1.28;87.79
68378;DHT22;55322;48.146;11.516;2022-12-07T17:19:11;1.16;89.16
68378;DHT22;55322;48.146;11.516;2022-12-07T17:21:38;1.15;89.23
68378;DHT22;55322;48.146;11.516;2022-12-07T17:24:06;1.13;88.71
68378;DHT22;55322;48.146;11.516;2022-12-07T17:26:32;1.05;89.70
68378;DHT22;55322;48.146;11.516;2022-12-07T17:28:59;1.05;89.01
68378;DHT22;55322;48.146;11.516;2022-12-07T17:31:25;1.02;88.69
68378;DHT22;55322;48.146;11.516;2022-12-07T17:33:50;0.96;88.24
68378;DHT22;55322;48.146;11.516;2022-12-07T17:36:22;0.92;88.63